sensor_id;sensor_type;location;lat;lon;timestamp;P1;durP1;ratioP1;P2;durP2;ratioP2
18526;SDS011;9393;42.158;24.748;2022-12-24T00:01:17;110.53;;;53.37;;
18526;SDS011;9393;42.158;24.748;2022-12-24T00:04:21;101.33;;;51.90;;
18526;SDS011;9393;42.158;24.748;2022-12-24T00:07:25;111.23;;;53.23;;
18526;SDS011;9393;42.158;24.748;2022-12-24T00:10:30;116.03;;;56.17;;
18526;SDS011;9393;42.158;24.748;2022-12-24T00:13:34;109.20;;;53.13;;
18526;SDS011;9393;42.158;24.748;2022-12-24T00:16:38;113.00;;;54.23;;
18526;SDS011;9393;42.158;24.748;2022-12-24T00:19:42;101.87;;;50.67;;
18526;SDS011;9393;42.158;24.748;2022-12-24T00:22:46;103.27;;;49.67;;
18526;SDS011;9393;42.158;24.748;2022-12-24T00:25:51;92.10;;;46.27;;
18526;SDS011;9393;42.158;24.748;2022-12-24T00:28:54;90.60;;;44.70;;
18526;SDS011;9393;42.158;24.748;2022-12-24T00:31:58;86.07;;;45.20;;
18526;SDS011;9393;42.158;24.748;2022-12-24T00:35:04;93.70;;;43.43;;
18526;SDS011;9393;42.158;24.748;2022-12-24T00:38:08;86.13;;;44.40;;
18526;SDS011;9393;42.158;24.748;2022-12-24T00:41:14;84.00;;;43.10;;
18526;SDS011;9393;42.158;24.748;2022-12-24T00:44:30;80.60;;;41.83;;
18526;SDS011;9393;42.158;24.748;2022-12-24T00:47:33;80.40;;;42.20;;
18526;SDS011;9393;42.158;24.748;2022-12-24T00:50:37;80.30;;;42.00;;
18526;SDS011;9393;42.158;24.748;2022-12-24T00:53:41;80.17;;;41.50;;
18526;SDS011;9393;42.158;24.748;2022-12-24T00:56:46;71.70;;;39.50;;
18526;SDS011;9393;42.158;24.748;2022-12-24T00:59:50;73.53;;;39.03;;
18526;SDS011;9393;42.158;24.748;2022-12-24T01:02:54;74.73;;;38.93;;
18526;SDS011;9393;42.158;24.748;2022-12-24T01:05:58;75.40;;;38.20;;
18526;SDS011;9393;42.158;24.748;2022-12-24T01:09:01;74.87;;;39.20;;
18526;SDS011;9393;42.158;24.748;2022-12-24T01:12:07;71.73;;;39.33;;
18526;SDS011;9393;42.158;24.748;2022-12-24T01:15:12;71.60;;;37.63;;
18526;SDS011;9393;42.158;24.748;2022-12-24T01:18:16;69.00;;;37.27;;
18526;SDS011;9393;42.158;24.748;2022-12-24T01:21:20;66.03;;;35.77;;
18526;SDS011;9393;42.158;24.748;2022-12-24T01:24:24;66.40;;;35.33;;
18526;SDS011;9393;42.158;24.748;2022-12-24T01:27:30;61.40;;;34.10;;
18526;SDS011;9393;42.158;24.748;2022-12-24T01:30:34;73.13;;;35.67;;
18526;SDS011;9393;42.158;24.748;2022-12-24T01:33:38;70.17;;;35.37;;
18526;SDS011;9393;42.158;24.748;2022-12-24T01:36:42;61.63;;;34.23;;
18526;SDS011;9393;42.158;24.748;2022-12-24T01:39:45;62.83;;;33.67;;
18526;SDS011;9393;42.158;24.748;2022-12-24T01:42:51;65.33;;;34.27;;
18526;SDS011;9393;42.158;24.748;2022-12-24T01:46:13;62.80;;;33.40;;
18526;SDS011;9393;42.158;24.748;2022-12-24T01:49:21;62.90;;;34.53;;
18526;SDS011;9393;42.158;24.748;2022-12-24T01:52:25;63.00;;;35.20;;
18526;SDS011;9393;42.158;24.748;2022-12-24T01:55:31;63.10;;;33.37;;
18526;SDS011;9393;42.158;24.748;2022-12-24T01:58:36;57.97;;;31.70;;
18526;SDS011;9393;42.158;24.748;2022-12-24T02:01:43;53.67;;;30.33;;
18526;SDS011;9393;42.158;24.748;2022-12-24T02:04:49;53.03;;;30.90;;
18526;SDS011;9393;42.158;24.748;2022-12-24T02:07:58;45.53;;;26.03;;
18526;SDS011;9393;42.158;24.748;2022-12-24T02:11:11;41.03;;;24.00;;
18526;SDS011;9393;42.158;24.748;2022-12-24T02:14:17;47.57;;;24.97;;
18526;SDS011;9393;42.158;24.748;2022-12-24T02:17:23;41.67;;;24.00;;
18526;SDS011;9393;42.158;24.748;2022-12-24T02:20:45;43.93;;;24.13;;
18526;SDS011;9393;42.158;24.748;2022-12-24T02:24:26;45.30;;;24.60;;
18526;SDS011;9393;42.158;24.748;2022-12-24T02:27:47;42.57;;;23.43;;
18526;SDS011;9393;42.158;24.748;2022-12-24T02:31:00;40.33;;;23.80;;
18526;SDS011;9393;42.158;24.748;2022-12-24T02:34:09;41.57;;;23.93;;
18526;SDS011;9393;42.158;24.748;2022-12-24T02:37:19;41.20;;;23.30;;
18526;SDS011;9393;42.158;24.748;2022-12-24T02:40:28;46.23;;;24.77;;
18526;SDS011;9393;42.158;24.748;2022-12-24T02:43:37;46.07;;;27.80;;
18526;SDS011;9393;42.158;24.748;2022-12-24T02:46:45;46.83;;;26.20;;
18526;SDS011;9393;42.158;24.748;2022-12-24T02:49:50;45.87;;;24.93;;
18526;SDS011;9393;42.158;24.748;2022-12-24T02:52:55;46.93;;;27.70;;
18526;SDS011;9393;42.158;24.748;2022-12-24T02:56:11;50.40;;;26.43;;
18526;SDS011;9393;42.158;24.748;2022-12-24T02:59:34;42.67;;;25.47;;
18526;SDS011;9393;42.158;24.748;2022-12-24T03:02:54;80.40;;;40.27;;
18526;SDS011;9393;42.158;24.748;2022-12-24T03:06:12;91.53;;;46.17;;
18526;SDS011;9393;42.158;24.748;2022-12-24T03:09:23;72.37;;;39.57;;
18526;SDS011;9393;42.158;24.748;2022-12-24T03:12:29;51.13;;;29.43;;
18526;SDS011;9393;42.158;24.748;2022-12-24T03:15:37;53.00;;;28.60;;
18526;SDS011;9393;42.158;24.748;2022-12-24T03:18:45;45.07;;;27.83;;
18526;SDS011;9393;42.158;24.748;2022-12-24T03:21:51;52.47;;;30.10;;
18526;SDS011;9393;42.158;24.748;2022-12-24T03:24:58;82.13;;;42.03;;
18526;SDS011;9393;42.158;24.748;2022-12-24T03:28:02;89.97;;;46.73;;
18526;SDS011;9393;42.158;24.748;2022-12-24T03:31:08;55.27;;;30.67;;
18526;SDS011;9393;42.158;24.748;2022-12-24T03:34:14;60.90;;;31.90;;
18526;SDS011;9393;42.158;24.748;2022-12-24T03:37:22;60.80;;;34.93;;
18526;SDS011;9393;42.158;24.748;2022-12-24T03:40:27;54.80;;;33.67;;
18526;SDS011;9393;42.158;24.748;2022-12-24T03:43:31;58.60;;;31.50;;
18526;SDS011;9393;42.158;24.748;2022-12-24T03:46:35;54.90;;;31.23;;
18526;SDS011;9393;42.158;24.748;2022-12-24T03:49:40;58.00;;;31.73;;
18526;SDS011;9393;42.158;24.748;2022-12-24T03:52:43;59.77;;;32.60;;
18526;SDS011;9393;42.158;24.748;2022-12-24T03:55:47;65.60;;;35.17;;
18526;SDS011;9393;42.158;24.748;2022-12-24T03:58:51;74.80;;;41.07;;
18526;SDS011;9393;42.158;24.748;2022-12-24T04:01:56;96.87;;;47.40;;
18526;SDS011;9393;42.158;24.748;2022-12-24T04:05:01;71.33;;;37.10;;
18526;SDS011;9393;42.158;24.748;2022-12-24T04:08:05;57.70;;;31.30;;
18526;SDS011;9393;42.158;24.748;2022-12-24T04:11:10;54.87;;;30.77;;
18526;SDS011;9393;42.158;24.748;2022-12-24T04:14:15;64.20;;;33.07;;
18526;SDS011;9393;42.158;24.748;2022-12-24T04:17:19;62.13;;;33.20;;
18526;SDS011;9393;42.158;24.748;2022-12-24T04:20:24;65.73;;;35.30;;
18526;SDS011;9393;42.158;24.748;2022-12-24T04:23:29;52.13;;;30.50;;
18526;SDS011;9393;42.158;24.748;2022-12-24T04:26:32;51.63;;;30.33;;
18526;SDS011;9393;42.158;24.748;2022-12-24T04:29:38;49.10;;;29.03;;
18526;SDS011;9393;42.158;24.748;2022-12-24T04:32:41;55.23;;;31.27;;
18526;SDS011;9393;42.158;24.748;2022-12-24T04:35:48;56.67;;;30.83;;
18526;SDS011;9393;42.158;24.748;2022-12-24T04:38:51;55.97;;;30.97;;
18526;SDS011;9393;42.158;24.748;2022-12-24T04:41:55;56.60;;;31.33;;
18526;SDS011;9393;42.158;24.748;2022-12-24T04:45:01;55.73;;;33.30;;
18526;SDS011;9393;42.158;24.748;2022-12-24T04:48:04;54.47;;;30.63;;
18526;SDS011;9393;42.158;24.748;2022-12-24T04:51:10;57.10;;;32.50;;
18526;SDS011;9393;42.158;24.748;2022-12-24T04:54:13;57.70;;;30.00;;
18526;SDS011;9393;42.158;24.748;2022-12-24T04:57:17;59.23;;;35.13;;
18526;SDS011;9393;42.158;24.748;2022-12-24T05:00:21;57.40;;;32.00;;
18526;SDS011;9393;42.158;24.748;2022-12-24T05:03:24;56.17;;;31.07;;
18526;SDS011;9393;42.158;24.748;2022-12-24T05:06:31;48.53;;;29.53;;
18526;SDS011;9393;42.158;24.748;2022-12-24T05:09:35;57.93;;;30.07;;
18526;SDS011;9393;42.158;24.748;2022-12-24T05:12:39;49.23;;;29.47;;
18526;SDS011;9393;42.158;24.748;2022-12-24T05:15:43;56.70;;;30.23;;
18526;SDS011;9393;42.158;24.748;2022-12-24T05:18:47;56.07;;;30.10;;
18526;SDS011;9393;42.158;24.748;2022-12-24T05:21:53;59.70;;;30.00;;
18526;SDS011;9393;42.158;24.748;2022-12-24T05:25:11;53.53;;;29.60;;
18526;SDS011;9393;42.158;24.748;2022-12-24T05:28:33;60.47;;;30.00;;
18526;SDS011;9393;42.158;24.748;2022-12-24T05:31:36;53.60;;;29.73;;
18526;SDS011;9393;42.158;24.748;2022-12-24T05:34:41;59.33;;;30.13;;
18526;SDS011;9393;42.158;24.748;2022-12-24T05:37:46;57.73;;;31.70;;
18526;SDS011;9393;42.158;24.748;2022-12-24T05:40:49;57.20;;;30.77;;
18526;SDS011;9393;42.158;24.748;2022-12-24T05:43:53;56.00;;;31.10;;
18526;SDS011;9393;42.158;24.748;2022-12-24T05:46:57;60.87;;;32.13;;
18526;SDS011;9393;42.158;24.748;2022-12-24T05:50:01;82.93;;;42.50;;
18526;SDS011;9393;42.158;24.748;2022-12-24T05:53:06;77.00;;;38.50;;
18526;SDS011;9393;42.158;24.748;2022-12-24T05:56:11;65.43;;;35.00;;
18526;SDS011;9393;42.158;24.748;2022-12-24T05:59:16;71.73;;;36.17;;
18526;SDS011;9393;42.158;24.748;2022-12-24T06:02:20;68.13;;;35.80;;
18526;SDS011;9393;42.158;24.748;2022-12-24T06:05:25;69.23;;;38.10;;
18526;SDS011;9393;42.158;24.748;2022-12-24T06:08:30;68.00;;;35.83;;
18526;SDS011;9393;42.158;24.748;2022-12-24T06:11:35;66.70;;;37.33;;
18526;SDS011;9393;42.158;24.748;2022-12-24T06:14:39;76.83;;;40.30;;
18526;SDS011;9393;42.158;24.748;2022-12-24T06:17:43;62.17;;;35.23;;
18526;SDS011;9393;42.158;24.748;2022-12-24T06:20:48;76.43;;;38.67;;
18526;SDS011;9393;42.158;24.748;2022-12-24T06:23:54;65.83;;;36.30;;
18526;SDS011;9393;42.158;24.748;2022-12-24T06:26:58;73.30;;;38.97;;
18526;SDS011;9393;42.158;24.748;2022-12-24T06:30:03;64.90;;;39.10;;
18526;SDS011;9393;42.158;24.748;2022-12-24T06:33:07;78.63;;;43.13;;
18526;SDS011;9393;42.158;24.748;2022-12-24T06:36:13;97.13;;;45.77;;
18526;SDS011;9393;42.158;24.748;2022-12-24T06:39:20;95.03;;;49.40;;
18526;SDS011;9393;42.158;24.748;2022-12-24T06:42:24;92.43;;;46.20;;
18526;SDS011;9393;42.158;24.748;2022-12-24T06:45:28;85.17;;;46.70;;
18526;SDS011;9393;42.158;24.748;2022-12-24T06:48:32;80.20;;;42.73;;
18526;SDS011;9393;42.158;24.748;2022-12-24T06:51:36;62.33;;;36.53;;
18526;SDS011;9393;42.158;24.748;2022-12-24T06:54:42;84.20;;;45.03;;
18526;SDS011;9393;42.158;24.748;2022-12-24T06:57:45;85.63;;;44.73;;
18526;SDS011;9393;42.158;24.748;2022-12-24T07:00:49;73.90;;;37.97;;
18526;SDS011;9393;42.158;24.748;2022-12-24T07:03:53;68.63;;;36.87;;
18526;SDS011;9393;42.158;24.748;2022-12-24T07:06:57;84.73;;;43.90;;
18526;SDS011;9393;42.158;24.748;2022-12-24T07:10:02;67.10;;;33.90;;
18526;SDS011;9393;42.158;24.748;2022-12-24T07:13:06;68.27;;;33.90;;
18526;SDS011;9393;42.158;24.748;2022-12-24T07:16:10;68.63;;;34.77;;
18526;SDS011;9393;42.158;24.748;2022-12-24T07:19:14;73.90;;;34.83;;
18526;SDS011;9393;42.158;24.748;2022-12-24T07:22:18;69.07;;;36.97;;
18526;SDS011;9393;42.158;24.748;2022-12-24T07:25:24;55.77;;;33.80;;
18526;SDS011;9393;42.158;24.748;2022-12-24T07:28:28;46.90;;;29.57;;
18526;SDS011;9393;42.158;24.748;2022-12-24T07:31:33;45.23;;;27.60;;
18526;SDS011;9393;42.158;24.748;2022-12-24T07:34:38;47.43;;;28.80;;
18526;SDS011;9393;42.158;24.748;2022-12-24T07:37:42;47.13;;;29.43;;
18526;SDS011;9393;42.158;24.748;2022-12-24T07:40:47;49.93;;;30.63;;
18526;SDS011;9393;42.158;24.748;2022-12-24T07:43:51;50.97;;;30.63;;
18526;SDS011;9393;42.158;24.748;2022-12-24T07:46:55;46.40;;;30.57;;
18526;SDS011;9393;42.158;24.748;2022-12-24T07:49:59;49.30;;;29.97;;
18526;SDS011;9393;42.158;24.748;2022-12-24T07:53:02;46.00;;;28.40;;
18526;SDS011;9393;42.158;24.748;2022-12-24T07:56:08;58.80;;;34.30;;
18526;SDS011;9393;42.158;24.748;2022-12-24T07:59:13;51.33;;;32.27;;
18526;SDS011;9393;42.158;24.748;2022-12-24T08:02:17;60.37;;;32.20;;
18526;SDS011;9393;42.158;24.748;2022-12-24T08:05:21;70.00;;;35.40;;
18526;SDS011;9393;42.158;24.748;2022-12-24T08:08:25;50.53;;;30.43;;
18526;SDS011;9393;42.158;24.748;2022-12-24T08:11:31;54.20;;;29.73;;
18526;SDS011;9393;42.158;24.748;2022-12-24T08:14:34;45.97;;;29.20;;
18526;SDS011;9393;42.158;24.748;2022-12-24T08:17:38;37.40;;;20.23;;
18526;SDS011;9393;42.158;24.748;2022-12-24T08:20:42;45.93;;;21.03;;
18526;SDS011;9393;42.158;24.748;2022-12-24T08:23:46;28.23;;;15.67;;
18526;SDS011;9393;42.158;24.748;2022-12-24T08:26:51;24.37;;;15.60;;
18526;SDS011;9393;42.158;24.748;2022-12-24T08:29:55;27.93;;;15.60;;
18526;SDS011;9393;42.158;24.748;2022-12-24T08:32:59;36.10;;;16.50;;
18526;SDS011;9393;42.158;24.748;2022-12-24T08:36:03;34.17;;;17.13;;
18526;SDS011;9393;42.158;24.748;2022-12-24T08:39:08;27.77;;;16.43;;
18526;SDS011;9393;42.158;24.748;2022-12-24T08:42:13;31.47;;;19.57;;
18526;SDS011;9393;42.158;24.748;2022-12-24T08:45:17;33.30;;;21.27;;
18526;SDS011;9393;42.158;24.748;2022-12-24T08:48:21;38.90;;;24.63;;
18526;SDS011;9393;42.158;24.748;2022-12-24T08:51:26;38.43;;;23.90;;
18526;SDS011;9393;42.158;24.748;2022-12-24T08:54:30;38.73;;;24.13;;
18526;SDS011;9393;42.158;24.748;2022-12-24T08:57:35;46.27;;;25.13;;
18526;SDS011;9393;42.158;24.748;2022-12-24T09:00:39;38.80;;;25.07;;
18526;SDS011;9393;42.158;24.748;2022-12-24T09:03:43;42.43;;;26.07;;
18526;SDS011;9393;42.158;24.748;2022-12-24T09:06:48;40.43;;;23.40;;
18526;SDS011;9393;42.158;24.748;2022-12-24T09:09:52;36.10;;;23.07;;
18526;SDS011;9393;42.158;24.748;2022-12-24T09:12:57;33.97;;;20.63;;
18526;SDS011;9393;42.158;24.748;2022-12-24T09:16:01;28.87;;;18.30;;
18526;SDS011;9393;42.158;24.748;2022-12-24T09:19:07;30.87;;;19.43;;
18526;SDS011;9393;42.158;24.748;2022-12-24T09:22:11;31.33;;;18.37;;
18526;SDS011;9393;42.158;24.748;2022-12-24T09:25:15;31.03;;;16.97;;
18526;SDS011;9393;42.158;24.748;2022-12-24T09:28:21;39.53;;;18.20;;
18526;SDS011;9393;42.158;24.748;2022-12-24T09:31:25;35.37;;;19.17;;
18526;SDS011;9393;42.158;24.748;2022-12-24T09:34:30;34.27;;;18.20;;
18526;SDS011;9393;42.158;24.748;2022-12-24T09:37:34;36.90;;;18.43;;
18526;SDS011;9393;42.158;24.748;2022-12-24T09:40:38;33.27;;;19.17;;
18526;SDS011;9393;42.158;24.748;2022-12-24T09:43:45;33.93;;;19.60;;
18526;SDS011;9393;42.158;24.748;2022-12-24T09:46:52;30.80;;;19.33;;
18526;SDS011;9393;42.158;24.748;2022-12-24T09:49:57;36.97;;;22.80;;
18526;SDS011;9393;42.158;24.748;2022-12-24T09:53:06;38.10;;;22.40;;
18526;SDS011;9393;42.158;24.748;2022-12-24T09:56:19;45.67;;;25.97;;
18526;SDS011;9393;42.158;24.748;2022-12-24T09:59:28;56.30;;;30.33;;
18526;SDS011;9393;42.158;24.748;2022-12-24T10:02:41;35.03;;;20.57;;
18526;SDS011;9393;42.158;24.748;2022-12-24T10:05:49;32.00;;;18.43;;
18526;SDS011;9393;42.158;24.748;2022-12-24T10:09:02;28.33;;;17.53;;
18526;SDS011;9393;42.158;24.748;2022-12-24T10:12:15;26.90;;;17.57;;
18526;SDS011;9393;42.158;24.748;2022-12-24T10:15:27;34.60;;;19.90;;
18526;SDS011;9393;42.158;24.748;2022-12-24T10:18:34;40.70;;;25.53;;
18526;SDS011;9393;42.158;24.748;2022-12-24T10:21:53;33.37;;;20.13;;
18526;SDS011;9393;42.158;24.748;2022-12-24T10:25:10;30.57;;;20.57;;
18526;SDS011;9393;42.158;24.748;2022-12-24T10:28:21;33.27;;;20.90;;
18526;SDS011;9393;42.158;24.748;2022-12-24T10:31:32;36.30;;;21.23;;
18526;SDS011;9393;42.158;24.748;2022-12-24T10:34:39;33.37;;;21.80;;
18526;SDS011;9393;42.158;24.748;2022-12-24T10:37:46;33.17;;;20.87;;
18526;SDS011;9393;42.158;24.748;2022-12-24T10:40:51;32.30;;;19.90;;
18526;SDS011;9393;42.158;24.748;2022-12-24T10:43:58;36.93;;;19.90;;
18526;SDS011;9393;42.158;24.748;2022-12-24T10:47:04;31.40;;;19.50;;
18526;SDS011;9393;42.158;24.748;2022-12-24T10:50:12;37.90;;;21.67;;
18526;SDS011;9393;42.158;24.748;2022-12-24T10:53:22;38.87;;;21.87;;
18526;SDS011;9393;42.158;24.748;2022-12-24T10:56:30;33.13;;;20.03;;
18526;SDS011;9393;42.158;24.748;2022-12-24T10:59:35;31.00;;;20.27;;
18526;SDS011;9393;42.158;24.748;2022-12-24T11:03:06;37.33;;;23.37;;
18526;SDS011;9393;42.158;24.748;2022-12-24T11:06:23;37.47;;;19.73;;
18526;SDS011;9393;42.158;24.748;2022-12-24T11:09:27;33.90;;;20.77;;
18526;SDS011;9393;42.158;24.748;2022-12-24T11:12:34;33.70;;;19.37;;
18526;SDS011;9393;42.158;24.748;2022-12-24T11:15:40;34.30;;;20.20;;
18526;SDS011;9393;42.158;24.748;2022-12-24T11:18:46;35.50;;;19.73;;
18526;SDS011;9393;42.158;24.748;2022-12-24T11:21:57;30.93;;;20.37;;
18526;SDS011;9393;42.158;24.748;2022-12-24T11:25:04;33.20;;;20.60;;
18526;SDS011;9393;42.158;24.748;2022-12-24T11:28:21;41.43;;;24.23;;
18526;SDS011;9393;42.158;24.748;2022-12-24T11:31:27;39.90;;;22.63;;
18526;SDS011;9393;42.158;24.748;2022-12-24T11:34:35;48.27;;;27.03;;
18526;SDS011;9393;42.158;24.748;2022-12-24T11:37:38;43.37;;;25.00;;
18526;SDS011;9393;42.158;24.748;2022-12-24T11:40:43;43.33;;;26.07;;
18526;SDS011;9393;42.158;24.748;2022-12-24T11:43:49;50.23;;;28.90;;
18526;SDS011;9393;42.158;24.748;2022-12-24T11:47:00;50.07;;;28.53;;
18526;SDS011;9393;42.158;24.748;2022-12-24T11:50:25;59.47;;;30.13;;
18526;SDS011;9393;42.158;24.748;2022-12-24T11:53:33;59.87;;;33.20;;
18526;SDS011;9393;42.158;24.748;2022-12-24T11:56:42;64.10;;;32.47;;
18526;SDS011;9393;42.158;24.748;2022-12-24T11:59:48;59.80;;;33.10;;
18526;SDS011;9393;42.158;24.748;2022-12-24T12:02:53;69.93;;;37.93;;
18526;SDS011;9393;42.158;24.748;2022-12-24T12:06:05;52.73;;;27.70;;
18526;SDS011;9393;42.158;24.748;2022-12-24T12:09:19;54.00;;;28.00;;
18526;SDS011;9393;42.158;24.748;2022-12-24T12:12:28;56.83;;;27.53;;
18526;SDS011;9393;42.158;24.748;2022-12-24T12:15:36;50.33;;;28.13;;
18526;SDS011;9393;42.158;24.748;2022-12-24T12:18:45;43.50;;;25.77;;
18526;SDS011;9393;42.158;24.748;2022-12-24T12:21:56;59.33;;;30.53;;
18526;SDS011;9393;42.158;24.748;2022-12-24T12:25:03;39.23;;;23.50;;
18526;SDS011;9393;42.158;24.748;2022-12-24T12:28:15;47.83;;;31.67;;
18526;SDS011;9393;42.158;24.748;2022-12-24T12:31:24;54.70;;;33.20;;
18526;SDS011;9393;42.158;24.748;2022-12-24T12:34:33;68.57;;;34.57;;
18526;SDS011;9393;42.158;24.748;2022-12-24T12:37:43;58.30;;;33.77;;
18526;SDS011;9393;42.158;24.748;2022-12-24T12:41:00;70.17;;;35.73;;
18526;SDS011;9393;42.158;24.748;2022-12-24T12:44:18;66.30;;;37.40;;
18526;SDS011;9393;42.158;24.748;2022-12-24T12:47:37;81.00;;;41.60;;
18526;SDS011;9393;42.158;24.748;2022-12-24T12:50:51;69.70;;;37.43;;
18526;SDS011;9393;42.158;24.748;2022-12-24T12:54:11;82.33;;;40.57;;
18526;SDS011;9393;42.158;24.748;2022-12-24T12:57:25;65.53;;;35.53;;
18526;SDS011;9393;42.158;24.748;2022-12-24T13:00:36;55.77;;;29.63;;
18526;SDS011;9393;42.158;24.748;2022-12-24T13:11:03;44.70;;;26.23;;
18526;SDS011;9393;42.158;24.748;2022-12-24T13:14:23;55.80;;;30.27;;
18526;SDS011;9393;42.158;24.748;2022-12-24T13:17:48;56.07;;;29.43;;
18526;SDS011;9393;42.158;24.748;2022-12-24T13:21:11;53.53;;;30.23;;
18526;SDS011;9393;42.158;24.748;2022-12-24T13:24:19;50.37;;;29.67;;
18526;SDS011;9393;42.158;24.748;2022-12-24T13:27:28;49.27;;;28.87;;
18526;SDS011;9393;42.158;24.748;2022-12-24T13:30:35;63.40;;;33.47;;
18526;SDS011;9393;42.158;24.748;2022-12-24T13:33:46;57.30;;;30.50;;
18526;SDS011;9393;42.158;24.748;2022-12-24T13:37:01;89.97;;;43.23;;
18526;SDS011;9393;42.158;24.748;2022-12-24T13:40:13;66.70;;;34.70;;
18526;SDS011;9393;42.158;24.748;2022-12-24T13:43:25;65.90;;;33.97;;
18526;SDS011;9393;42.158;24.748;2022-12-24T13:47:15;71.47;;;35.97;;
18526;SDS011;9393;42.158;24.748;2022-12-24T13:50:34;62.77;;;32.10;;
18526;SDS011;9393;42.158;24.748;2022-12-24T13:53:40;64.27;;;33.87;;
18526;SDS011;9393;42.158;24.748;2022-12-24T13:56:45;58.33;;;30.97;;
18526;SDS011;9393;42.158;24.748;2022-12-24T13:59:54;68.00;;;33.67;;
18526;SDS011;9393;42.158;24.748;2022-12-24T14:03:04;52.60;;;28.23;;
18526;SDS011;9393;42.158;24.748;2022-12-24T14:06:20;63.60;;;31.03;;
18526;SDS011;9393;42.158;24.748;2022-12-24T14:09:26;47.97;;;28.93;;
18526;SDS011;9393;42.158;24.748;2022-12-24T14:12:33;60.53;;;32.93;;
18526;SDS011;9393;42.158;24.748;2022-12-24T14:19:11;48.90;;;27.27;;
18526;SDS011;9393;42.158;24.748;2022-12-24T14:22:24;41.90;;;25.40;;
18526;SDS011;9393;42.158;24.748;2022-12-24T14:25:31;53.57;;;28.93;;
18526;SDS011;9393;42.158;24.748;2022-12-24T14:28:39;40.57;;;25.37;;
18526;SDS011;9393;42.158;24.748;2022-12-24T14:31:51;62.33;;;32.10;;
18526;SDS011;9393;42.158;24.748;2022-12-24T14:35:03;50.57;;;28.70;;
18526;SDS011;9393;42.158;24.748;2022-12-24T14:38:11;58.90;;;29.00;;
18526;SDS011;9393;42.158;24.748;2022-12-24T14:41:26;56.70;;;31.23;;
18526;SDS011;9393;42.158;24.748;2022-12-24T14:44:39;54.97;;;29.87;;
18526;SDS011;9393;42.158;24.748;2022-12-24T14:47:52;63.47;;;35.27;;
18526;SDS011;9393;42.158;24.748;2022-12-24T14:51:07;55.93;;;32.33;;
18526;SDS011;9393;42.158;24.748;2022-12-24T14:54:25;59.27;;;32.53;;
18526;SDS011;9393;42.158;24.748;2022-12-24T14:57:37;59.20;;;30.17;;
18526;SDS011;9393;42.158;24.748;2022-12-24T15:00:41;61.33;;;33.17;;
18526;SDS011;9393;42.158;24.748;2022-12-24T15:03:48;62.05;;;32.80;;
18526;SDS011;9393;42.158;24.748;2022-12-24T15:07:02;67.57;;;34.67;;
18526;SDS011;9393;42.158;24.748;2022-12-24T15:10:18;76.90;;;35.97;;
18526;SDS011;9393;42.158;24.748;2022-12-24T15:13:31;67.17;;;34.23;;
18526;SDS011;9393;42.158;24.748;2022-12-24T15:16:38;62.93;;;32.63;;
18526;SDS011;9393;42.158;24.748;2022-12-24T15:19:44;56.07;;;32.47;;
18526;SDS011;9393;42.158;24.748;2022-12-24T15:22:53;61.33;;;32.50;;
18526;SDS011;9393;42.158;24.748;2022-12-24T15:26:13;68.67;;;35.47;;
18526;SDS011;9393;42.158;24.748;2022-12-24T15:29:24;86.97;;;44.47;;
18526;SDS011;9393;42.158;24.748;2022-12-24T15:32:29;73.23;;;37.50;;
18526;SDS011;9393;42.158;24.748;2022-12-24T15:35:45;66.97;;;33.43;;
18526;SDS011;9393;42.158;24.748;2022-12-24T15:38:53;85.57;;;47.37;;
18526;SDS011;9393;42.158;24.748;2022-12-24T15:41:59;70.63;;;38.07;;
18526;SDS011;9393;42.158;24.748;2022-12-24T15:45:16;101.47;;;53.03;;
18526;SDS011;9393;42.158;24.748;2022-12-24T15:48:28;95.63;;;51.27;;
18526;SDS011;9393;42.158;24.748;2022-12-24T15:51:35;83.37;;;42.43;;
18526;SDS011;9393;42.158;24.748;2022-12-24T15:54:42;94.97;;;48.87;;
18526;SDS011;9393;42.158;24.748;2022-12-24T15:57:52;109.33;;;54.80;;
18526;SDS011;9393;42.158;24.748;2022-12-24T16:01:00;98.83;;;52.80;;
18526;SDS011;9393;42.158;24.748;2022-12-24T16:04:11;91.03;;;45.37;;
18526;SDS011;9393;42.158;24.748;2022-12-24T16:07:24;85.20;;;44.83;;
18526;SDS011;9393;42.158;24.748;2022-12-24T16:10:49;81.40;;;43.03;;
18526;SDS011;9393;42.158;24.748;2022-12-24T16:13:58;84.00;;;44.43;;
18526;SDS011;9393;42.158;24.748;2022-12-24T16:17:12;82.53;;;41.57;;
18526;SDS011;9393;42.158;24.748;2022-12-24T16:20:21;86.67;;;41.80;;
18526;SDS011;9393;42.158;24.748;2022-12-24T16:23:28;77.43;;;39.63;;
18526;SDS011;9393;42.158;24.748;2022-12-24T16:26:40;76.40;;;38.23;;
18526;SDS011;9393;42.158;24.748;2022-12-24T16:29:44;63.33;;;37.00;;
18526;SDS011;9393;42.158;24.748;2022-12-24T16:32:48;93.53;;;54.97;;
18526;SDS011;9393;42.158;24.748;2022-12-24T16:35:53;94.03;;;54.53;;
18526;SDS011;9393;42.158;24.748;2022-12-24T16:38:58;96.67;;;54.90;;
18526;SDS011;9393;42.158;24.748;2022-12-24T16:42:19;104.60;;;55.83;;
18526;SDS011;9393;42.158;24.748;2022-12-24T16:45:41;95.57;;;54.60;;
18526;SDS011;9393;42.158;24.748;2022-12-24T16:48:46;69.77;;;39.90;;
18526;SDS011;9393;42.158;24.748;2022-12-24T16:51:51;64.87;;;35.17;;
18526;SDS011;9393;42.158;24.748;2022-12-24T16:54:56;60.90;;;31.43;;
18526;SDS011;9393;42.158;24.748;2022-12-24T16:58:00;53.30;;;27.70;;
18526;SDS011;9393;42.158;24.748;2022-12-24T17:01:07;49.27;;;24.33;;
18526;SDS011;9393;42.158;24.748;2022-12-24T17:04:11;39.80;;;24.23;;
18526;SDS011;9393;42.158;24.748;2022-12-24T17:07:16;34.83;;;19.60;;
18526;SDS011;9393;42.158;24.748;2022-12-24T17:10:23;28.57;;;16.40;;
18526;SDS011;9393;42.158;24.748;2022-12-24T17:13:26;27.10;;;16.33;;
18526;SDS011;9393;42.158;24.748;2022-12-24T17:16:30;19.93;;;12.30;;
18526;SDS011;9393;42.158;24.748;2022-12-24T17:19:34;21.23;;;12.00;;
18526;SDS011;9393;42.158;24.748;2022-12-24T17:22:38;22.53;;;15.87;;
18526;SDS011;9393;42.158;24.748;2022-12-24T17:25:43;22.53;;;14.23;;
18526;SDS011;9393;42.158;24.748;2022-12-24T17:28:51;24.00;;;16.17;;
18526;SDS011;9393;42.158;24.748;2022-12-24T17:31:56;19.87;;;12.37;;
18526;SDS011;9393;42.158;24.748;2022-12-24T17:35:00;22.87;;;16.60;;
18526;SDS011;9393;42.158;24.748;2022-12-24T17:38:03;30.47;;;17.43;;
18526;SDS011;9393;42.158;24.748;2022-12-24T17:41:13;18.53;;;11.17;;
18526;SDS011;9393;42.158;24.748;2022-12-24T17:44:20;24.40;;;14.63;;
18526;SDS011;9393;42.158;24.748;2022-12-24T17:47:24;19.10;;;12.37;;
18526;SDS011;9393;42.158;24.748;2022-12-24T17:50:28;20.87;;;13.50;;
18526;SDS011;9393;42.158;24.748;2022-12-24T17:53:32;21.47;;;14.23;;
18526;SDS011;9393;42.158;24.748;2022-12-24T17:56:37;23.07;;;14.67;;
18526;SDS011;9393;42.158;24.748;2022-12-24T17:59:41;21.33;;;12.43;;
18526;SDS011;9393;42.158;24.748;2022-12-24T18:02:45;17.17;;;10.67;;
18526;SDS011;9393;42.158;24.748;2022-12-24T18:05:49;19.67;;;13.37;;
18526;SDS011;9393;42.158;24.748;2022-12-24T18:08:55;22.50;;;11.27;;
18526;SDS011;9393;42.158;24.748;2022-12-24T18:12:00;18.63;;;10.40;;
18526;SDS011;9393;42.158;24.748;2022-12-24T18:15:05;16.60;;;10.43;;
18526;SDS011;9393;42.158;24.748;2022-12-24T18:18:09;16.47;;;10.03;;
18526;SDS011;9393;42.158;24.748;2022-12-24T18:21:13;16.00;;;10.57;;
18526;SDS011;9393;42.158;24.748;2022-12-24T18:24:17;14.47;;;10.80;;
18526;SDS011;9393;42.158;24.748;2022-12-24T18:27:22;18.50;;;12.20;;